Aurora, CO (80011)

6:45 PM MST on December 24, 2014 (GMT -0700)
APRSWXNET Aurora CO US | Change Station
CLOSE
Current Station
Personal Weather Station
Location: Aurora, CO
Elevation: 5485 ft
Nearby Weather Stations
Active Advisory: Winter Weather Advisory

Elev 5485 ft 39.70 °N, 104.80 °W | Updated 34 minutes ago

Mostly Cloudy
Mostly Cloudy
42 °F
Feels Like 42 °F
N
0
Wind Variable Wind from South
Gusts 0.0 mph

Today
High -- | Low -- °F
--% Chance of Precip.
Yesterday
High -- | Low -- °F
Precip. -- in
7:18 AM 4:39 PM
Waxing Crescent, 12% visible
Pressure 29.65 in
Visibility 10.0 miles
Clouds Few 7000 ft
Scattered Clouds 11000 ft
Mostly Cloudy 22000 ft
Windchill 42 °F
Dew Point 27 °F
Humidity 54%
Rainfall 0.00 in
Snow Depth Not available.
UV 0 out of 12
Pollen .10 out of 12
Air Quality Not available.
Flu Activity Not available.
METAR KBKF 250058Z 18005KT 10SM FEW070 SCT110 BKN220 03/M06 A2960 RMK AO2A SLP038 T00301062

More Conditions Fewer Conditions

Pressure 29.65 in
Visibility 10.0 miles
Clouds Few 7000 ft
Scattered Clouds 11000 ft
Mostly Cloudy 22000 ft
Windchill 42 °F
Dew Point 27 °F
Humidity 54%
Rainfall 0.00 in
Snow Depth Not available.
UV 0 out of 12
Pollen .10 out of 12
Air Quality Not available.
Flu Activity Not available.
METAR KBKF 250058Z 18005KT 10SM FEW070 SCT110 BKN220 03/M06 A2960 RMK AO2A SLP038 T00301062

More Conditions Fewer Conditions

10-Day Weather Forecast

Almanac

Astronomy

Dec. 24, 2014 Rise Set
Actual Time
Civil Twilight
Nautical Twilight
Astronomical Twilight
Moon
Length of Visible Light
Length of Day
Tomorrow will be .
, % of the Moon is Illuminated

Today's Extremes

State Highs State Lows

Community

WunderPhotos

Upload Photos

1,780,208 photos uploaded!

WunderBlogs® & News

Nearby

Air Quality

  Air Quality AQ Index Pollutant
Not available.

Snow Depth

Station Depth Elevation

Earthquake Activity

City Distance Mag. Time & Date
Minimum magnitude displayed is 2.5.

Coastal Water Temperatures

Place Temperature

Nearby Weather Stations